createdAt,value
2023-02-15T00:00:16.888Z,0
2023-02-15T00:01:16.790Z,0
2023-02-15T00:02:17.257Z,0
2023-02-15T00:03:17.124Z,0
2023-02-15T00:04:16.690Z,0
2023-02-15T00:05:16.778Z,0
2023-02-15T00:06:16.625Z,0
2023-02-15T00:07:16.650Z,0
2023-02-15T00:08:16.544Z,0
2023-02-15T00:09:16.524Z,0
2023-02-15T00:10:16.476Z,0
2023-02-15T00:11:16.443Z,0
2023-02-15T00:12:16.415Z,0
2023-02-15T00:13:16.385Z,0
2023-02-15T00:14:16.407Z,0
2023-02-15T00:15:16.420Z,0
2023-02-15T00:16:16.560Z,0
2023-02-15T00:17:16.262Z,0
2023-02-15T00:18:16.290Z,0
2023-02-15T00:19:16.227Z,0
2023-02-15T00:20:16.162Z,0
2023-02-15T00:21:16.096Z,0
2023-02-15T00:22:16.083Z,0
2023-02-15T00:23:16.043Z,0
2023-02-15T00:24:16.052Z,0
2023-02-15T00:25:15.970Z,0
2023-02-15T00:26:15.955Z,0
2023-02-15T00:27:15.914Z,0
2023-02-15T00:28:15.879Z,0
2023-02-15T00:29:15.890Z,0
2023-02-15T00:30:15.989Z,0
2023-02-15T00:31:16.537Z,0
2023-02-15T00:32:15.722Z,0
2023-02-15T00:33:15.689Z,0
2023-02-15T00:34:15.772Z,0
2023-02-15T00:35:16.032Z,0
2023-02-15T00:36:15.598Z,0
2023-02-15T00:37:15.569Z,0
2023-02-15T00:38:15.543Z,0
2023-02-15T00:39:15.492Z,0
2023-02-15T00:40:15.463Z,0
2023-02-15T00:41:15.443Z,0
2023-02-15T00:42:15.403Z,0
2023-02-15T00:43:15.346Z,0
2023-02-15T00:44:15.352Z,0
2023-02-15T00:45:17.292Z,0
2023-02-15T00:46:15.555Z,0
2023-02-15T00:47:15.383Z,0
2023-02-15T00:48:15.191Z,0
2023-02-15T00:49:15.199Z,0
2023-02-15T00:50:15.207Z,0
2023-02-15T00:51:15.140Z,0
2023-02-15T00:52:14.823Z,0
2023-02-15T00:53:15.006Z,0
2023-02-15T00:54:14.976Z,0
2023-02-15T00:55:14.939Z,0
2023-02-15T00:56:14.957Z,0
2023-02-15T00:57:14.876Z,0
2023-02-15T00:58:14.852Z,0
2023-02-15T00:59:14.808Z,0
2023-02-15T01:00:14.775Z,0
2023-02-15T01:01:15.063Z,0
2023-02-15T01:02:14.708Z,0
2023-02-15T01:03:14.707Z,0
2023-02-15T01:04:15.042Z,0
2023-02-15T01:05:14.631Z,0
2023-02-15T01:06:14.641Z,0
2023-02-15T01:07:14.600Z,0
2023-02-15T01:08:14.495Z,0
2023-02-15T01:09:14.517Z,0
2023-02-15T01:10:14.432Z,0
2023-02-15T01:11:15.433Z,0
2023-02-15T01:12:14.463Z,0
2023-02-15T01:13:14.326Z,0
2023-02-15T01:14:14.277Z,0
2023-02-15T01:15:14.273Z,0
2023-02-15T01:16:15.335Z,0
2023-02-15T01:17:14.192Z,0
2023-02-15T01:18:14.227Z,0
2023-02-15T01:19:14.162Z,0
2023-02-15T01:20:14.076Z,0
2023-02-15T01:21:14.065Z,0
2023-02-15T01:22:14.141Z,0
2023-02-15T01:23:14.031Z,0
2023-02-15T01:24:14.053Z,0
2023-02-15T01:25:13.908Z,0
2023-02-15T01:26:13.995Z,0
2023-02-15T01:27:13.848Z,0
2023-02-15T01:28:13.844Z,0
2023-02-15T01:29:13.770Z,0
2023-02-15T01:30:13.957Z,0
2023-02-15T01:31:14.532Z,0
2023-02-15T01:32:14.127Z,0
2023-02-15T01:33:13.633Z,0
2023-02-15T01:34:13.622Z,0
2023-02-15T01:35:13.548Z,0
2023-02-15T01:36:13.543Z,0
2023-02-15T01:37:13.506Z,0
2023-02-15T01:38:13.534Z,0
2023-02-15T01:39:13.511Z,0
2023-02-15T01:40:13.381Z,0
2023-02-15T01:41:13.343Z,0
2023-02-15T01:42:13.330Z,0
2023-02-15T01:43:13.279Z,0
2023-02-15T01:44:13.269Z,0
2023-02-15T01:45:13.222Z,0
2023-02-15T01:46:13.875Z,0
2023-02-15T01:47:13.156Z,0
2023-02-15T01:48:13.119Z,0
2023-02-15T01:49:13.109Z,0
2023-02-15T01:50:13.076Z,0
2023-02-15T01:51:13.693Z,0
2023-02-15T01:52:12.968Z,0
2023-02-15T01:53:12.953Z,0
2023-02-15T01:54:12.974Z,0
2023-02-15T01:55:15.017Z,0
2023-02-15T01:56:13.280Z,0
2023-02-15T01:57:12.795Z,0
2023-02-15T01:58:12.803Z,0
2023-02-15T01:59:12.504Z,0
2023-02-15T02:00:12.698Z,0
2023-02-15T02:01:12.848Z,0
2023-02-15T02:02:12.645Z,0
2023-02-15T02:03:12.929Z,0
2023-02-15T02:04:12.606Z,0
2023-02-15T02:05:12.312Z,0
2023-02-15T02:06:12.766Z,0
2023-02-15T02:07:12.502Z,0
2023-02-15T02:08:12.420Z,0
2023-02-15T02:09:12.498Z,0
2023-02-15T02:10:12.499Z,0
2023-02-15T02:11:12.368Z,0
2023-02-15T02:12:12.262Z,0
2023-02-15T02:13:12.239Z,0
2023-02-15T02:14:12.223Z,0
2023-02-15T02:15:12.201Z,0
2023-02-15T02:16:13.167Z,0
2023-02-15T02:17:12.118Z,0
2023-02-15T02:18:11.813Z,0
2023-02-15T02:19:12.025Z,0
2023-02-15T02:20:12.028Z,0
2023-02-15T02:21:11.971Z,0
2023-02-15T02:22:11.942Z,0
2023-02-15T02:23:11.918Z,0
2023-02-15T02:24:11.853Z,0
2023-02-15T02:25:11.845Z,0
2023-02-15T02:26:12.229Z,0
2023-02-15T02:27:11.836Z,0
2023-02-15T02:28:11.702Z,0
2023-02-15T02:29:11.684Z,0
2023-02-15T02:30:12.134Z,0
2023-02-15T02:31:12.331Z,0
2023-02-15T02:32:11.836Z,0
2023-02-15T02:33:11.550Z,0
2023-02-15T02:34:11.506Z,0
2023-02-15T02:35:11.474Z,0
2023-02-15T02:36:11.868Z,0
2023-02-15T02:37:11.397Z,0
2023-02-15T02:38:11.357Z,0
2023-02-15T02:39:11.319Z,0
2023-02-15T02:40:11.291Z,0
2023-02-15T02:41:11.420Z,0
2023-02-15T02:42:11.331Z,0
2023-02-15T02:43:11.267Z,0
2023-02-15T02:44:11.169Z,0
2023-02-15T02:45:11.148Z,0
2023-02-15T02:46:12.060Z,0
2023-02-15T02:47:11.056Z,0
2023-02-15T02:48:11.024Z,0
2023-02-15T02:49:10.993Z,0
2023-02-15T02:50:10.985Z,0
2023-02-15T02:51:10.963Z,0
2023-02-15T02:52:10.888Z,0
2023-02-15T02:53:10.838Z,0
2023-02-15T02:54:10.811Z,0
2023-02-15T02:55:10.798Z,0
2023-02-15T02:56:11.514Z,0
2023-02-15T02:57:10.715Z,0
2023-02-15T02:58:10.739Z,0
2023-02-15T02:59:10.685Z,0
2023-02-15T03:00:10.602Z,0
2023-02-15T03:01:10.551Z,0
2023-02-15T03:02:10.780Z,0
2023-02-15T03:03:11.153Z,0
2023-02-15T03:04:10.486Z,0
2023-02-15T03:05:10.421Z,0
2023-02-15T03:06:11.152Z,0
2023-02-15T03:07:10.380Z,0
2023-02-15T03:08:10.325Z,0
2023-02-15T03:09:10.277Z,0
2023-02-15T03:10:10.256Z,0
2023-02-15T03:11:10.209Z,0
2023-02-15T03:12:10.174Z,0
2023-02-15T03:13:10.164Z,0
2023-02-15T03:14:10.218Z,0
2023-02-15T03:15:10.136Z,0
2023-02-15T03:16:11.259Z,0
2023-02-15T03:17:10.005Z,0
2023-02-15T03:18:09.968Z,0
2023-02-15T03:19:09.930Z,0
2023-02-15T03:20:09.912Z,0
2023-02-15T03:21:09.881Z,0
2023-02-15T03:22:09.823Z,0
2023-02-15T03:23:09.812Z,0
2023-02-15T03:24:09.771Z,0
2023-02-15T03:25:09.816Z,0
2023-02-15T03:26:10.563Z,0
2023-02-15T03:27:09.689Z,0
2023-02-15T03:28:09.633Z,0
2023-02-15T03:29:09.583Z,0
2023-02-15T03:30:10.114Z,0
2023-02-15T03:31:10.297Z,0
2023-02-15T03:32:10.133Z,0
2023-02-15T03:33:09.473Z,0
2023-02-15T03:34:09.219Z,0
2023-02-15T03:35:09.374Z,0
2023-02-15T03:36:10.432Z,0
2023-02-15T03:37:12.857Z,0
2023-02-15T03:38:09.271Z,0
2023-02-15T03:39:09.252Z,0
2023-02-15T03:40:09.246Z,0
2023-02-15T03:41:09.209Z,0
2023-02-15T03:42:09.129Z,0
2023-02-15T03:43:09.114Z,0
2023-02-15T03:44:09.087Z,0
2023-02-15T03:45:09.055Z,0
2023-02-15T03:46:09.996Z,0
2023-02-15T03:47:09.155Z,0
2023-02-15T03:48:08.952Z,0
2023-02-15T03:49:08.879Z,0
2023-02-15T03:50:08.654Z,0
2023-02-15T03:51:08.813Z,0
2023-02-15T03:52:08.770Z,0
2023-02-15T03:53:08.875Z,0
2023-02-15T03:54:08.709Z,0
2023-02-15T03:55:08.686Z,0
2023-02-15T03:56:09.226Z,0
2023-02-15T03:57:08.672Z,0
2023-02-15T03:58:08.565Z,0
2023-02-15T03:59:08.523Z,0
2023-02-15T04:00:08.635Z,0
2023-02-15T04:01:08.570Z,0
2023-02-15T04:02:08.646Z,0
2023-02-15T04:03:08.772Z,0
2023-02-15T04:04:08.458Z,0
2023-02-15T04:05:08.330Z,0
2023-02-15T04:06:09.123Z,0
2023-02-15T04:07:08.251Z,0
2023-02-15T04:08:08.212Z,0
2023-02-15T04:09:08.190Z,0
2023-02-15T04:10:07.406Z,0
2023-02-15T04:11:08.124Z,0
2023-02-15T04:12:08.090Z,0
2023-02-15T04:13:08.027Z,0
2023-02-15T04:14:08.000Z,0
2023-02-15T04:15:07.995Z,0
2023-02-15T04:16:10.844Z,0
2023-02-15T04:17:07.656Z,0
2023-02-15T04:18:08.009Z,0
2023-02-15T04:19:07.896Z,0
2023-02-15T04:20:07.830Z,0
2023-02-15T04:21:07.784Z,0
2023-02-15T04:22:07.703Z,0
2023-02-15T04:23:07.671Z,0
2023-02-15T04:24:07.646Z,0
2023-02-15T04:25:07.641Z,0
2023-02-15T04:26:08.388Z,0
2023-02-15T04:27:07.557Z,0
2023-02-15T04:28:07.504Z,0
2023-02-15T04:29:07.453Z,0
2023-02-15T04:30:07.745Z,0
2023-02-15T04:31:07.633Z,0
2023-02-15T04:32:07.784Z,0
2023-02-15T04:33:07.321Z,0
2023-02-15T04:34:07.352Z,0
2023-02-15T04:35:07.285Z,0
2023-02-15T04:36:07.896Z,0
2023-02-15T04:37:07.213Z,0
2023-02-15T04:38:07.140Z,0
2023-02-15T04:39:07.095Z,0
2023-02-15T04:40:07.092Z,0
2023-02-15T04:41:07.058Z,0
2023-02-15T04:42:07.004Z,0
2023-02-15T04:43:07.018Z,0
2023-02-15T04:44:06.934Z,0
2023-02-15T04:45:06.882Z,0
2023-02-15T04:46:08.311Z,0
2023-02-15T04:47:06.825Z,0
2023-02-15T04:48:06.792Z,0
2023-02-15T04:49:06.759Z,0
2023-02-15T04:50:07.724Z,0
2023-02-15T04:51:06.726Z,0
2023-02-15T04:52:06.636Z,0
2023-02-15T04:53:06.642Z,0
2023-02-15T04:54:06.611Z,0
2023-02-15T04:55:06.540Z,0
2023-02-15T04:56:07.079Z,0
2023-02-15T04:57:06.579Z,0
2023-02-15T04:58:06.416Z,0
2023-02-15T04:59:06.419Z,0
2023-02-15T05:00:06.358Z,0
2023-02-15T05:01:06.644Z,0
2023-02-15T05:02:06.289Z,0
2023-02-15T05:03:06.610Z,0
2023-02-15T05:04:06.544Z,0
2023-02-15T05:05:06.197Z,0
2023-02-15T05:06:06.819Z,0
2023-02-15T05:07:06.153Z,0
2023-02-15T05:08:06.183Z,0
2023-02-15T05:09:06.030Z,0
2023-02-15T05:10:06.251Z,0
2023-02-15T05:11:05.958Z,0
2023-02-15T05:12:05.952Z,0
2023-02-15T05:13:05.905Z,0
2023-02-15T05:14:05.864Z,0
2023-02-15T05:15:05.795Z,0
2023-02-15T05:16:06.656Z,0
2023-02-15T05:17:05.873Z,0
2023-02-15T05:18:05.701Z,0
2023-02-15T05:19:05.660Z,0
2023-02-15T05:20:05.684Z,0
2023-02-15T05:21:05.604Z,0
2023-02-15T05:22:05.645Z,0
2023-02-15T05:23:05.642Z,0
2023-02-15T05:24:05.497Z,0
2023-02-15T05:25:05.469Z,0
2023-02-15T05:26:06.144Z,0
2023-02-15T05:27:05.428Z,0
2023-02-15T05:28:07.562Z,0
2023-02-15T05:29:05.344Z,0
2023-02-15T05:30:06.183Z,0
2023-02-15T05:31:06.988Z,0
2023-02-15T05:32:06.393Z,0
2023-02-15T05:33:05.253Z,0
2023-02-15T05:34:05.167Z,0
2023-02-15T05:35:05.102Z,0
2023-02-15T05:36:07.390Z,0
2023-02-15T05:37:05.086Z,0
2023-02-15T05:38:05.103Z,0
2023-02-15T05:39:05.027Z,0
2023-02-15T05:40:04.918Z,0
2023-02-15T05:41:04.876Z,0
2023-02-15T05:42:04.854Z,0
2023-02-15T05:43:04.830Z,0
2023-02-15T05:44:04.843Z,0
2023-02-15T05:45:04.788Z,0
2023-02-15T05:46:05.911Z,0
2023-02-15T05:47:04.674Z,0
2023-02-15T05:48:04.646Z,0
2023-02-15T05:49:04.614Z,0
2023-02-15T05:50:04.557Z,0
2023-02-15T05:51:04.529Z,0
2023-02-15T05:52:05.147Z,0
2023-02-15T05:53:04.449Z,0
2023-02-15T05:54:04.490Z,0
2023-02-15T05:55:04.444Z,0
2023-02-15T05:56:05.648Z,0
2023-02-15T05:57:04.337Z,0
2023-02-15T05:58:04.296Z,0
2023-02-15T05:59:04.033Z,0
2023-02-15T06:00:04.228Z,0
2023-02-15T06:01:04.189Z,0
2023-02-15T06:02:04.304Z,0
2023-02-15T06:03:04.145Z,0
2023-02-15T06:04:04.146Z,0
2023-02-15T06:05:04.071Z,0
2023-02-15T06:06:04.775Z,0
2023-02-15T06:07:04.034Z,0
2023-02-15T06:08:05.867Z,0
2023-02-15T06:09:03.885Z,0
2023-02-15T06:10:03.910Z,0
2023-02-15T06:11:03.879Z,0
2023-02-15T06:12:03.775Z,0
2023-02-15T06:13:03.825Z,0
2023-02-15T06:14:03.720Z,0
2023-02-15T06:15:03.697Z,0
2023-02-15T06:16:04.692Z,0
2023-02-15T06:17:03.610Z,0
2023-02-15T06:18:03.565Z,0
2023-02-15T06:19:03.533Z,0
2023-02-15T06:20:03.499Z,0
2023-02-15T06:21:03.471Z,0
2023-02-15T06:22:03.419Z,0
2023-02-15T06:23:03.386Z,0
2023-02-15T06:24:03.346Z,0
2023-02-15T06:25:03.341Z,0
2023-02-15T06:26:04.238Z,0
2023-02-15T06:27:03.342Z,0
2023-02-15T06:28:03.255Z,0
2023-02-15T06:29:03.170Z,0
2023-02-15T06:30:03.430Z,0
2023-02-15T06:31:03.907Z,0
2023-02-15T06:32:04.071Z,0
2023-02-15T06:33:03.073Z,0
2023-02-15T06:34:02.989Z,5
2023-02-15T06:35:02.964Z,5
2023-02-15T06:36:03.708Z,5
2023-02-15T06:37:02.916Z,5
2023-02-15T06:38:02.862Z,5
2023-02-15T06:39:02.804Z,5
2023-02-15T06:40:05.839Z,10
2023-02-15T06:41:02.751Z,10
2023-02-15T06:42:02.789Z,10
2023-02-15T06:43:02.707Z,10
2023-02-15T06:44:02.391Z,10
2023-02-15T06:45:02.657Z,15
2023-02-15T06:46:03.573Z,15
2023-02-15T06:47:02.549Z,15
2023-02-15T06:48:02.518Z,20
2023-02-15T06:49:02.481Z,20
2023-02-15T06:50:02.464Z,20
2023-02-15T06:51:02.443Z,20
2023-02-15T06:52:02.410Z,25
2023-02-15T06:53:02.322Z,25
2023-02-15T06:54:02.276Z,25
2023-02-15T06:55:02.034Z,30
2023-02-15T06:56:03.007Z,30
2023-02-15T06:57:02.220Z,35
2023-02-15T06:58:02.238Z,35
2023-02-15T06:59:02.139Z,35
2023-02-15T07:00:02.054Z,40
2023-02-15T07:01:02.035Z,40
2023-02-15T07:02:02.332Z,40
2023-02-15T07:03:01.950Z,45
2023-02-15T07:04:02.005Z,45
2023-02-15T07:05:02.310Z,50
2023-02-15T07:06:02.720Z,50
2023-02-15T07:07:03.580Z,50
2023-02-15T07:08:01.782Z,55
2023-02-15T07:09:01.746Z,55
2023-02-15T07:10:01.787Z,60
2023-02-15T07:11:01.680Z,60
2023-02-15T07:12:01.629Z,60
2023-02-15T07:13:01.609Z,65
2023-02-15T07:14:01.648Z,65
2023-02-15T07:15:01.702Z,70
2023-02-15T07:16:02.110Z,70
2023-02-15T07:17:01.461Z,70
2023-02-15T07:18:01.598Z,75
2023-02-15T07:19:01.647Z,75
2023-02-15T07:20:01.356Z,75
2023-02-15T07:21:01.315Z,80
2023-02-15T07:22:01.052Z,80
2023-02-15T07:23:01.004Z,85
2023-02-15T07:24:01.205Z,85
2023-02-15T07:25:01.347Z,85
2023-02-15T07:26:01.523Z,90
2023-02-15T07:27:01.218Z,90
2023-02-15T07:28:00.573Z,90
2023-02-15T07:29:00.789Z,95
2023-02-15T07:30:01.540Z,95
2023-02-15T07:31:01.273Z,95
2023-02-15T07:32:01.140Z,100
2023-02-15T07:33:02.848Z,100
2023-02-15T07:34:01.078Z,100
2023-02-15T07:35:00.576Z,105
2023-02-15T07:36:00.905Z,105
2023-02-15T07:37:02.176Z,105
2023-02-15T07:38:00.714Z,110
2023-02-15T07:39:00.932Z,110
2023-02-15T07:40:00.638Z,110
2023-02-15T07:41:00.595Z,115
2023-02-15T07:42:00.147Z,115
2023-02-15T07:43:03.177Z,115
2023-02-15T07:44:00.289Z,115
2023-02-15T07:45:00.629Z,120
2023-02-15T07:46:01.220Z,120
2023-02-15T07:47:00.634Z,120
2023-02-15T07:48:00.468Z,125
2023-02-15T07:49:00.343Z,125
2023-02-15T07:50:00.752Z,125
2023-02-15T07:51:00.264Z,125
2023-02-15T07:52:00.229Z,130
2023-02-15T07:53:00.423Z,130
2023-02-15T07:54:00.149Z,130
2023-02-15T07:55:00.154Z,135
2023-02-15T07:56:00.363Z,135
2023-02-15T07:57:00.293Z,135
2023-02-15T07:58:00.060Z,135
2023-02-15T07:59:00.116Z,140
2023-02-15T08:00:00.036Z,140
2023-02-15T08:00:59.685Z,140
2023-02-15T08:02:00.109Z,145
2023-02-15T08:03:00.039Z,145
2023-02-15T08:04:00.163Z,145
2023-02-15T08:04:59.778Z,145
2023-02-15T08:06:00.078Z,150
2023-02-15T08:06:59.462Z,150
2023-02-15T08:07:59.666Z,150
2023-02-15T08:08:59.396Z,150
2023-02-15T08:09:59.597Z,150
2023-02-15T08:10:59.327Z,150
2023-02-15T08:11:59.530Z,150
2023-02-15T08:12:59.507Z,150
2023-02-15T08:13:59.513Z,155
2023-02-15T08:14:59.423Z,155
2023-02-15T08:15:59.484Z,155
2023-02-15T08:16:59.863Z,155
2023-02-15T08:17:59.476Z,155
2023-02-15T08:18:59.366Z,160
2023-02-15T08:19:59.251Z,160
2023-02-15T08:20:59.263Z,160
2023-02-15T08:21:59.205Z,160
2023-02-15T08:22:58.942Z,160
2023-02-15T08:23:59.162Z,160
2023-02-15T08:24:59.124Z,160
2023-02-15T08:25:59.211Z,160
2023-02-15T08:26:58.835Z,160
2023-02-15T08:27:59.020Z,160
2023-02-15T08:28:58.955Z,165
2023-02-15T08:29:59.210Z,160
2023-02-15T08:30:59.031Z,160
2023-02-15T08:31:59.284Z,165
2023-02-15T08:32:59.058Z,165
2023-02-15T08:33:58.867Z,165
2023-02-15T08:34:58.736Z,165
2023-02-15T08:35:58.268Z,165
2023-02-15T08:36:58.456Z,170
2023-02-15T08:37:58.647Z,170
2023-02-15T08:38:58.632Z,170
2023-02-15T08:39:58.333Z,170
2023-02-15T08:40:58.595Z,170
2023-02-15T08:41:58.528Z,170
2023-02-15T08:42:58.534Z,170
2023-02-15T08:43:58.446Z,165
2023-02-15T08:44:59.874Z,170
2023-02-15T08:45:58.386Z,170
2023-02-15T08:46:58.164Z,165
2023-02-15T08:47:58.380Z,165
2023-02-15T08:48:58.320Z,165
2023-02-15T08:49:58.515Z,170
2023-02-15T08:50:58.267Z,165
2023-02-15T08:51:58.105Z,165
2023-02-15T08:52:58.156Z,165
2023-02-15T08:53:58.142Z,165
2023-02-15T08:54:58.080Z,170
2023-02-15T08:55:58.060Z,170
2023-02-15T08:56:58.047Z,175
2023-02-15T08:57:57.977Z,175
2023-02-15T08:58:57.937Z,175
2023-02-15T08:59:57.923Z,180
2023-02-15T09:00:58.044Z,180
2023-02-15T09:01:58.187Z,180
2023-02-15T09:02:57.730Z,180
2023-02-15T09:03:58.113Z,180
2023-02-15T09:04:57.556Z,180
2023-02-15T09:05:57.735Z,180
2023-02-15T09:06:58.603Z,185
2023-02-15T09:07:57.438Z,185
2023-02-15T09:08:57.640Z,185
2023-02-15T09:09:57.624Z,185
2023-02-15T09:10:57.556Z,185
2023-02-15T09:12:04.234Z,185
2023-02-15T09:12:57.495Z,185
2023-02-15T09:13:57.461Z,185
2023-02-15T09:14:57.206Z,190
2023-02-15T09:15:57.370Z,190
2023-02-15T09:16:57.695Z,190
2023-02-15T09:17:57.321Z,195
2023-02-15T09:18:57.062Z,190
2023-02-15T09:19:57.069Z,190
2023-02-15T09:20:57.210Z,190
2023-02-15T09:21:57.300Z,190
2023-02-15T09:23:02.276Z,190
2023-02-15T09:23:57.129Z,190
2023-02-15T09:24:57.094Z,190
2023-02-15T09:25:57.062Z,190
2023-02-15T09:26:57.055Z,190
2023-02-15T09:27:56.983Z,190
2023-02-15T09:28:56.975Z,190
2023-02-15T09:29:57.185Z,190
2023-02-15T09:30:57.306Z,190
2023-02-15T09:31:57.220Z,195
2023-02-15T09:32:56.839Z,195
2023-02-15T09:33:56.370Z,195
2023-02-15T09:34:56.770Z,195
2023-02-15T09:35:56.554Z,195
2023-02-15T09:36:56.594Z,195
2023-02-15T09:37:57.034Z,195
2023-02-15T09:38:56.732Z,195
2023-02-15T09:39:58.552Z,195
2023-02-15T09:40:56.583Z,195
2023-02-15T09:41:56.342Z,195
2023-02-15T09:42:56.328Z,195
2023-02-15T09:43:56.480Z,195
2023-02-15T09:44:56.628Z,195
2023-02-15T09:45:56.745Z,195
2023-02-15T09:46:56.383Z,195
2023-02-15T09:47:56.356Z,195
2023-02-15T09:48:56.332Z,200
2023-02-15T09:49:56.338Z,200
2023-02-15T09:50:56.254Z,205
2023-02-15T09:51:56.282Z,205
2023-02-15T09:52:55.965Z,205
2023-02-15T09:53:56.696Z,205
2023-02-15T09:54:56.049Z,205
2023-02-15T09:55:56.110Z,210
2023-02-15T09:56:56.089Z,210
2023-02-15T09:57:56.280Z,210
2023-02-15T09:58:56.098Z,210
2023-02-15T09:59:55.985Z,210
2023-02-15T10:00:55.825Z,210
2023-02-15T10:01:56.085Z,215
2023-02-15T10:02:55.863Z,215
2023-02-15T10:03:55.886Z,215
2023-02-15T10:04:56.324Z,215
2023-02-15T10:05:55.830Z,215
2023-02-15T10:06:55.806Z,215
2023-02-15T10:07:55.742Z,215
2023-02-15T10:08:55.692Z,215
2023-02-15T10:09:55.764Z,220
2023-02-15T10:10:55.717Z,220
2023-02-15T10:11:55.388Z,220
2023-02-15T10:12:55.566Z,220
2023-02-15T10:13:55.313Z,220
2023-02-15T10:14:55.552Z,220
2023-02-15T10:15:55.635Z,225
2023-02-15T10:16:55.716Z,225
2023-02-15T10:17:55.213Z,225
2023-02-15T10:18:55.405Z,225
2023-02-15T10:19:55.177Z,225
2023-02-15T10:20:55.323Z,225
2023-02-15T10:21:55.052Z,225
2023-02-15T10:22:55.022Z,225
2023-02-15T10:23:55.366Z,225
2023-02-15T10:24:58.380Z,225
2023-02-15T10:25:55.216Z,225
2023-02-15T10:26:55.219Z,225
2023-02-15T10:27:55.128Z,225
2023-02-15T10:28:54.891Z,225
2023-02-15T10:29:55.181Z,225
2023-02-15T10:30:55.708Z,225
2023-02-15T10:31:55.979Z,225
2023-02-15T10:32:54.977Z,225
2023-02-15T10:33:54.465Z,225
2023-02-15T10:34:54.922Z,225
2023-02-15T10:35:57.058Z,225
2023-02-15T10:36:54.607Z,225
2023-02-15T10:37:54.815Z,225
2023-02-15T10:38:54.550Z,225
2023-02-15T10:39:54.525Z,225
2023-02-15T10:40:54.551Z,230
2023-02-15T10:41:56.584Z,230
2023-02-15T10:42:54.221Z,230
2023-02-15T10:43:54.967Z,230
2023-02-15T10:44:54.611Z,230
2023-02-15T10:45:54.848Z,235
2023-02-15T10:46:54.572Z,235
2023-02-15T10:47:54.621Z,235
2023-02-15T10:48:54.527Z,240
2023-02-15T10:49:54.459Z,240
2023-02-15T10:50:54.462Z,245
2023-02-15T10:51:54.452Z,250
2023-02-15T10:52:54.357Z,260
2023-02-15T10:53:53.854Z,255
2023-02-15T10:54:53.855Z,260
2023-02-15T10:55:54.101Z,260
2023-02-15T10:56:54.454Z,260
2023-02-15T10:57:54.134Z,265
2023-02-15T10:58:54.259Z,270
2023-02-15T10:59:54.166Z,270
2023-02-15T11:00:54.147Z,275
2023-02-15T11:01:54.636Z,275
2023-02-15T11:02:53.889Z,270
2023-02-15T11:03:53.807Z,275
2023-02-15T11:04:54.372Z,275
2023-02-15T11:05:53.774Z,275
2023-02-15T11:06:54.056Z,275
2023-02-15T11:07:54.959Z,275
2023-02-15T11:08:54.240Z,275
2023-02-15T11:09:53.875Z,275
2023-02-15T11:10:53.846Z,275
2023-02-15T11:11:53.763Z,275
2023-02-15T11:12:53.987Z,275
2023-02-15T11:13:53.793Z,275
2023-02-15T11:14:53.962Z,275
2023-02-15T11:15:53.937Z,270
2023-02-15T11:16:53.438Z,270
2023-02-15T11:17:53.584Z,270
2023-02-15T11:18:53.634Z,270
2023-02-15T11:19:53.614Z,270
2023-02-15T11:20:53.669Z,275
2023-02-15T11:21:53.574Z,275
2023-02-15T11:22:53.611Z,275
2023-02-15T11:23:53.514Z,275
2023-02-15T11:24:53.447Z,275
2023-02-15T11:25:53.417Z,275
2023-02-15T11:26:53.404Z,275
2023-02-15T11:27:56.121Z,280
2023-02-15T11:28:53.392Z,280
2023-02-15T11:29:53.447Z,280
2023-02-15T11:30:53.955Z,280
2023-02-15T11:31:54.279Z,285
2023-02-15T11:32:53.250Z,285
2023-02-15T11:33:53.210Z,290
2023-02-15T11:34:53.185Z,285
2023-02-15T11:35:53.163Z,285
2023-02-15T11:36:52.919Z,280
2023-02-15T11:37:53.101Z,280
2023-02-15T11:38:52.811Z,285
2023-02-15T11:39:52.810Z,280
2023-02-15T11:40:53.035Z,280
2023-02-15T11:41:53.028Z,280
2023-02-15T11:42:53.058Z,280
2023-02-15T11:43:52.843Z,285
2023-02-15T11:44:52.945Z,285
2023-02-15T11:45:52.947Z,290
2023-02-15T11:46:53.280Z,290
2023-02-15T11:47:52.807Z,290
2023-02-15T11:48:52.804Z,290
2023-02-15T11:49:52.747Z,290
2023-02-15T11:50:52.732Z,295
2023-02-15T11:51:52.476Z,290
2023-02-15T11:52:52.435Z,290
2023-02-15T11:53:52.748Z,285
2023-02-15T11:54:52.625Z,285
2023-02-15T11:55:52.640Z,285
2023-02-15T11:56:52.561Z,275
2023-02-15T11:57:52.560Z,285
2023-02-15T11:58:52.272Z,280
2023-02-15T11:59:52.538Z,280
2023-02-15T12:00:53.067Z,275
2023-02-15T12:01:52.477Z,275
2023-02-15T12:02:52.757Z,275
2023-02-15T12:03:52.925Z,275
2023-02-15T12:04:52.371Z,275
2023-02-15T12:05:52.375Z,270
2023-02-15T12:06:52.295Z,270
2023-02-15T12:07:51.795Z,275
2023-02-15T12:08:52.275Z,270
2023-02-15T12:09:52.252Z,270
2023-02-15T12:10:52.195Z,275
2023-02-15T12:11:52.177Z,275
2023-02-15T12:12:52.147Z,270
2023-02-15T12:13:52.124Z,270
2023-02-15T12:14:52.135Z,265
2023-02-15T12:15:52.704Z,265
2023-02-15T12:16:51.858Z,265
2023-02-15T12:17:51.795Z,260
2023-02-15T12:18:52.049Z,260
2023-02-15T12:19:51.482Z,265
2023-02-15T12:20:51.688Z,265
2023-02-15T12:21:51.915Z,265
2023-02-15T12:22:51.852Z,260
2023-02-15T12:23:51.865Z,260
2023-02-15T12:24:51.860Z,255
2023-02-15T12:25:51.797Z,255
2023-02-15T12:26:51.774Z,255
2023-02-15T12:27:51.770Z,255
2023-02-15T12:28:51.715Z,255
2023-02-15T12:29:51.484Z,255
2023-02-15T12:30:51.740Z,255
2023-02-15T12:31:52.361Z,255
2023-02-15T12:32:51.806Z,255
2023-02-15T12:33:51.156Z,255
2023-02-15T12:34:51.590Z,260
2023-02-15T12:35:51.509Z,260
2023-02-15T12:36:51.510Z,260
2023-02-15T12:37:51.225Z,260
2023-02-15T12:38:51.528Z,260
2023-02-15T12:39:51.170Z,260
2023-02-15T12:40:51.392Z,260
2023-02-15T12:41:51.367Z,260
2023-02-15T12:42:51.380Z,260
2023-02-15T12:43:51.399Z,260
2023-02-15T12:44:51.282Z,260
2023-02-15T12:45:51.271Z,255
2023-02-15T12:46:53.729Z,255
2023-02-15T12:47:51.001Z,255
2023-02-15T12:48:51.224Z,250
2023-02-15T12:49:56.951Z,245
2023-02-15T12:50:57.258Z,250
2023-02-15T12:51:52.728Z,250
2023-02-15T12:52:51.092Z,250
2023-02-15T12:53:54.366Z,250
2023-02-15T12:54:50.771Z,250
2023-02-15T12:55:54.968Z,250
2023-02-15T12:56:50.737Z,250
2023-02-15T12:57:50.699Z,255
2023-02-15T12:58:50.699Z,255
2023-02-15T12:59:53.160Z,260
2023-02-15T13:00:51.676Z,260
2023-02-15T13:01:51.017Z,265
2023-02-15T13:02:51.220Z,265
2023-02-15T13:03:50.811Z,265
2023-02-15T13:04:50.600Z,265
2023-02-15T13:05:52.964Z,265
2023-02-15T13:06:50.498Z,265
2023-02-15T13:07:50.706Z,260
2023-02-15T13:08:50.643Z,260
2023-02-15T13:09:50.620Z,260
2023-02-15T13:10:50.374Z,260
2023-02-15T13:11:50.370Z,260
2023-02-15T13:12:50.530Z,260
2023-02-15T13:13:50.569Z,260
2023-02-15T13:14:50.491Z,255
2023-02-15T13:15:50.468Z,255
2023-02-15T13:16:51.063Z,255
2023-02-15T13:17:50.428Z,255
2023-02-15T13:18:50.394Z,255
2023-02-15T13:19:50.216Z,250
2023-02-15T13:20:50.482Z,250
2023-02-15T13:21:50.365Z,255
2023-02-15T13:22:50.442Z,250
2023-02-15T13:23:50.405Z,250
2023-02-15T13:24:50.249Z,250
2023-02-15T13:25:50.213Z,250
2023-02-15T13:26:50.180Z,250
2023-02-15T13:27:50.162Z,250
2023-02-15T13:28:50.126Z,250
2023-02-15T13:29:50.187Z,250
2023-02-15T13:30:50.152Z,250
2023-02-15T13:31:50.999Z,250
2023-02-15T13:32:50.033Z,250
2023-02-15T13:33:50.038Z,250
2023-02-15T13:34:50.017Z,250
2023-02-15T13:35:51.174Z,245
2023-02-15T13:36:50.045Z,245
2023-02-15T13:37:49.906Z,245
2023-02-15T13:38:49.886Z,240
2023-02-15T13:39:49.654Z,235
2023-02-15T13:40:51.169Z,235
2023-02-15T13:41:50.486Z,235
2023-02-15T13:42:49.758Z,235
2023-02-15T13:43:49.758Z,225
2023-02-15T13:44:49.723Z,235
2023-02-15T13:45:49.881Z,235
2023-02-15T13:46:51.994Z,235
2023-02-15T13:47:49.397Z,240
2023-02-15T13:48:58.565Z,240
2023-02-15T13:49:49.577Z,240
2023-02-15T13:50:49.572Z,245
2023-02-15T13:51:49.665Z,245
2023-02-15T13:52:49.567Z,250
2023-02-15T13:53:49.576Z,245
2023-02-15T13:54:49.554Z,245
2023-02-15T13:55:49.441Z,245
2023-02-15T13:56:48.924Z,240
2023-02-15T13:57:49.371Z,240
2023-02-15T13:58:49.338Z,240
2023-02-15T13:59:49.078Z,235
2023-02-15T14:00:49.445Z,235
2023-02-15T14:01:49.282Z,235
2023-02-15T14:02:49.232Z,230
2023-02-15T14:03:49.461Z,225
2023-02-15T14:04:48.944Z,225
2023-02-15T14:05:49.162Z,230
2023-02-15T14:06:49.150Z,230
2023-02-15T14:07:49.151Z,230
2023-02-15T14:08:49.124Z,230
2023-02-15T14:09:49.219Z,230
2023-02-15T14:10:50.521Z,225
2023-02-15T14:11:48.771Z,230
2023-02-15T14:12:49.001Z,230
2023-02-15T14:13:48.962Z,225
2023-02-15T14:14:48.456Z,225